createdAt,value
2023-04-25T00:00:07.023Z,69.4593
2023-04-25T00:01:07.688Z,69.4913
2023-04-25T00:02:08.816Z,69.5995
2023-04-25T00:03:09.268Z,69.2618
2023-04-25T00:04:09.546Z,69.3876
2023-04-25T00:05:09.564Z,69.7917
2023-04-25T00:06:09.911Z,69.6797
2023-04-25T00:07:10.767Z,69.1598
2023-04-25T00:08:11.476Z,69.0543
2023-04-25T00:09:12.130Z,69.5278
2023-04-25T00:10:12.827Z,69.9124
2023-04-25T00:11:13.310Z,69.6629
2023-04-25T00:12:13.962Z,69.8819
2023-04-25T00:13:14.939Z,69.8043
2023-04-25T00:14:15.655Z,69.7616
2023-04-25T00:15:16.513Z,70.0220
2023-04-25T00:16:17.487Z,70.0342
2023-04-25T00:17:18.241Z,69.9855
2023-04-25T00:18:19.153Z,70.3165
2023-04-25T00:19:19.586Z,70.4524
2023-04-25T00:20:20.274Z,70.2558
2023-04-25T00:21:20.837Z,70.1040
2023-04-25T00:22:21.474Z,70.0156
2023-04-25T00:23:22.124Z,70.0767
2023-04-25T00:24:22.718Z,70.0473
2023-04-25T00:25:23.143Z,70.0655
2023-04-25T00:26:23.813Z,70.3522
2023-04-25T00:27:24.295Z,70.4056
2023-04-25T00:28:24.962Z,70.5535
2023-04-25T00:29:25.580Z,70.9435
2023-04-25T00:30:26.128Z,70.8787
2023-04-25T00:31:26.514Z,70.8679
2023-04-25T00:32:27.592Z,69.9124
2023-04-25T00:33:28.462Z,69.9428
2023-04-25T00:34:28.581Z,69.8362
2023-04-25T00:35:29.106Z,69.8983
2023-04-25T00:36:29.726Z,70.2909
2023-04-25T00:37:30.615Z,70.3268
2023-04-25T00:38:31.106Z,70.4082
2023-04-25T00:39:32.218Z,70.4326
2023-04-25T00:40:32.772Z,70.4141
2023-04-25T00:41:33.204Z,70.4252
2023-04-25T00:42:33.974Z,70.4150
2023-04-25T00:43:34.585Z,70.5150
2023-04-25T00:44:35.616Z,70.4560
2023-04-25T00:45:36.292Z,70.6174
2023-04-25T00:46:37.224Z,70.8556
2023-04-25T00:47:38.491Z,71.2989
2023-04-25T00:48:38.412Z,71.0066
2023-04-25T00:49:38.850Z,71.0691
2023-04-25T00:50:39.610Z,70.9803
2023-04-25T00:51:40.009Z,71.2733
2023-04-25T00:52:40.713Z,71.5245
2023-04-25T00:53:41.343Z,71.4804
2023-04-25T00:54:42.270Z,71.5969
2023-04-25T00:55:42.962Z,71.7087
2023-04-25T00:56:43.629Z,72.1890
2023-04-25T00:57:44.110Z,72.5903
2023-04-25T00:58:44.800Z,72.6335
2023-04-25T00:59:45.364Z,72.1105
2023-04-25T01:00:46.103Z,72.2742
2023-04-25T01:01:47.098Z,72.5503
2023-04-25T01:02:48.448Z,72.8665
2023-04-25T01:03:48.826Z,72.8146
2023-04-25T01:04:48.766Z,72.5539
2023-04-25T01:05:49.503Z,73.0753
2023-04-25T01:06:50.318Z,73.1854
2023-04-25T01:07:50.752Z,73.3596
2023-04-25T01:08:51.283Z,73.0247
2023-04-25T01:09:51.904Z,72.9821
2023-04-25T01:10:52.323Z,73.1069
2023-04-25T01:11:53.019Z,73.4476
2023-04-25T01:12:53.566Z,74.0291
2023-04-25T01:13:54.209Z,74.3362
2023-04-25T01:14:54.831Z,74.0962
2023-04-25T01:15:55.331Z,73.9927
2023-04-25T01:16:56.422Z,73.8150
2023-04-25T01:17:57.297Z,74.3317
2023-04-25T01:18:58.048Z,75.3259
2023-04-25T01:19:58.645Z,75.0960
2023-04-25T01:20:59.194Z,75.6971
2023-04-25T01:21:59.896Z,75.6040
2023-04-25T01:23:00.640Z,75.7144
2023-04-25T01:24:01.758Z,75.9533
2023-04-25T01:25:02.335Z,75.4894
2023-04-25T01:26:03.095Z,74.9388
2023-04-25T01:27:03.687Z,74.6140
2023-04-25T01:28:04.284Z,74.6739
2023-04-25T01:29:04.668Z,74.5921
2023-04-25T01:30:05.289Z,74.3717
2023-04-25T01:31:07.863Z,74.7438
2023-04-25T01:32:06.870Z,74.6257
2023-04-25T01:33:08.805Z,74.4162
2023-04-25T01:35:08.375Z,74.3073
2023-04-25T01:36:09.157Z,74.1158
2023-04-25T01:37:10.455Z,74.2992
2023-04-25T01:38:11.004Z,74.3616
2023-04-25T01:39:11.664Z,74.2220
2023-04-25T01:40:12.285Z,74.2649
2023-04-25T01:41:12.801Z,74.1687
2023-04-25T01:42:13.433Z,74.2601
2023-04-25T01:43:14.821Z,74.4548
2023-04-25T01:46:16.102Z,74.6436
2023-04-25T01:47:16.970Z,74.6062
2023-04-25T01:48:18.089Z,74.7895
2023-04-25T01:49:18.598Z,75.0621
2023-04-25T01:50:19.192Z,75.0173
2023-04-25T01:51:19.600Z,75.1031
2023-04-25T01:52:20.137Z,75.0915
2023-04-25T01:53:20.796Z,75.2617
2023-04-25T01:54:21.531Z,74.4167
2023-04-25T01:55:22.283Z,74.4216
2023-04-25T01:56:22.990Z,74.5314
2023-04-25T01:57:23.560Z,74.2845
2023-04-25T01:58:24.225Z,74.5383
2023-04-25T01:59:25.399Z,74.5605
2023-04-25T02:00:25.500Z,74.3637
2023-04-25T02:01:26.354Z,74.3737
2023-04-25T02:02:27.286Z,74.1264
2023-04-25T02:03:27.612Z,73.7917
2023-04-25T02:04:28.664Z,72.8795
2023-04-25T02:05:29.561Z,72.4403
2023-04-25T02:06:30.350Z,72.7898
2023-04-25T02:07:30.771Z,73.3354
2023-04-25T02:08:31.168Z,73.6233
2023-04-25T02:09:31.603Z,73.8195
2023-04-25T02:10:32.370Z,73.4123
2023-04-25T02:11:33.525Z,73.4089
2023-04-25T02:12:33.147Z,73.4787
2023-04-25T02:13:33.624Z,73.5996
2023-04-25T02:14:34.876Z,73.4210
2023-04-25T02:15:35.374Z,73.3386
2023-04-25T02:16:36.050Z,73.2500
2023-04-25T02:17:36.065Z,73.1980
2023-04-25T02:18:36.794Z,73.2486
2023-04-25T02:19:37.486Z,73.3896
2023-04-25T02:20:38.276Z,73.4870
2023-04-25T02:21:39.185Z,73.9285
2023-04-25T02:22:39.706Z,74.2898
2023-04-25T02:23:40.360Z,74.3938
2023-04-25T02:24:41.034Z,74.7018
2023-04-25T02:25:41.985Z,75.2350
2023-04-25T02:26:42.587Z,75.6823
2023-04-25T02:27:43.275Z,75.8737
2023-04-25T02:28:43.809Z,76.1225
2023-04-25T02:29:44.450Z,76.4516
2023-04-25T02:30:44.970Z,77.2781
2023-04-25T02:31:46.120Z,76.7411
2023-04-25T02:32:46.902Z,76.0366
2023-04-25T02:33:47.573Z,75.6384
2023-04-25T02:34:48.197Z,75.6822
2023-04-25T02:35:48.922Z,75.3710
2023-04-25T02:36:50.087Z,75.2866
2023-04-25T02:37:51.162Z,75.2324
2023-04-25T02:38:51.945Z,74.9929
2023-04-25T02:39:52.392Z,74.9710
2023-04-25T02:40:53.042Z,75.1342
2023-04-25T02:41:53.669Z,75.5042
2023-04-25T02:42:54.114Z,75.9015
2023-04-25T02:43:54.229Z,75.9107
2023-04-25T02:44:55.401Z,75.8174
2023-04-25T02:45:55.539Z,75.9841
2023-04-25T02:46:56.408Z,76.2890
2023-04-25T02:47:57.440Z,76.2491
2023-04-25T02:48:58.365Z,76.2894
2023-04-25T02:49:59.412Z,76.5861
2023-04-25T02:50:59.908Z,76.9034
2023-04-25T02:52:00.683Z,77.0566
2023-04-25T02:53:01.382Z,77.2426
2023-04-25T02:54:01.821Z,77.5200
2023-04-25T02:55:02.422Z,77.6836
2023-04-25T02:56:02.907Z,77.6001
2023-04-25T02:57:03.461Z,77.4445
2023-04-25T02:58:04.054Z,77.2542
2023-04-25T02:59:04.482Z,77.0920
2023-04-25T03:00:05.174Z,77.0603
2023-04-25T03:01:06.060Z,77.7067
2023-04-25T03:02:06.652Z,77.4076
2023-04-25T03:03:06.805Z,77.3437
2023-04-25T03:04:08.015Z,77.5187
2023-04-25T03:05:08.965Z,77.6428
2023-04-25T03:06:09.543Z,77.8397
2023-04-25T03:07:10.007Z,77.5092
2023-04-25T03:08:10.852Z,76.9949
2023-04-25T03:09:11.469Z,76.9683
2023-04-25T03:10:12.227Z,76.6547
2023-04-25T03:11:13.031Z,76.8904
2023-04-25T03:12:13.690Z,77.2808
2023-04-25T03:13:14.443Z,77.1127
2023-04-25T03:14:14.492Z,76.9649
2023-04-25T03:15:15.753Z,77.2753
2023-04-25T03:16:16.244Z,77.5628
2023-04-25T03:17:17.503Z,78.2045
2023-04-25T03:18:18.652Z,78.0940
2023-04-25T03:19:18.870Z,78.2073
2023-04-25T03:20:19.401Z,78.6314
2023-04-25T03:21:20.062Z,79.0011
2023-04-25T03:22:20.738Z,79.5139
2023-04-25T03:23:21.334Z,80.4413
2023-04-25T03:24:21.849Z,80.7096
2023-04-25T03:25:22.351Z,80.3365
2023-04-25T03:26:23.011Z,80.2805
2023-04-25T03:27:23.669Z,80.4468
2023-04-25T03:28:24.160Z,80.3614
2023-04-25T03:29:25.020Z,80.2683
2023-04-25T03:30:25.537Z,80.4428
2023-04-25T03:31:26.043Z,80.5340
2023-04-25T03:32:26.791Z,80.6169
2023-04-25T03:33:26.568Z,81.0848
2023-04-25T03:34:26.452Z,81.1731
2023-04-25T03:35:27.752Z,81.2194
2023-04-25T03:36:28.093Z,81.7245
2023-04-25T03:37:29.006Z,82.3054
2023-04-25T03:38:29.572Z,82.3691
2023-04-25T03:39:29.964Z,82.1671
2023-04-25T03:40:30.659Z,82.3526
2023-04-25T03:41:31.379Z,82.5817
2023-04-25T03:42:32.204Z,82.6474
2023-04-25T03:43:32.866Z,82.8322
2023-04-25T03:44:33.437Z,83.1871
2023-04-25T03:45:34.104Z,83.2854
2023-04-25T03:46:34.319Z,83.4150
2023-04-25T03:47:34.797Z,83.5145
2023-04-25T03:48:36.070Z,83.7503
2023-04-25T03:49:36.636Z,83.7746
2023-04-25T03:50:36.655Z,84.0857
2023-04-25T03:51:37.202Z,84.4719
2023-04-25T03:52:37.755Z,84.5075
2023-04-25T03:53:38.306Z,84.7904
2023-04-25T03:54:38.615Z,85.0158
2023-04-25T03:55:40.748Z,85.1264
2023-04-25T03:56:39.778Z,85.0129
2023-04-25T03:57:40.251Z,84.9941
2023-04-25T03:58:41.322Z,85.0079
2023-04-25T03:59:41.906Z,85.0866
2023-04-25T04:00:42.305Z,85.1453
2023-04-25T04:01:42.609Z,85.3397
2023-04-25T04:02:45.549Z,85.5737
2023-04-25T04:03:45.037Z,85.4518
2023-04-25T04:04:45.149Z,85.4589
2023-04-25T04:05:44.932Z,85.3980
2023-04-25T04:06:45.816Z,85.2346
2023-04-25T04:07:46.357Z,84.7800
2023-04-25T04:08:47.134Z,84.4070
2023-04-25T04:09:47.707Z,84.0602
2023-04-25T04:10:48.452Z,83.8252
2023-04-25T04:11:48.468Z,83.6756
2023-04-25T04:12:49.138Z,83.2838
2023-04-25T04:13:50.063Z,83.1772
2023-04-25T04:14:50.554Z,83.1539
2023-04-25T04:15:51.489Z,83.0512
2023-04-25T04:16:52.542Z,83.0592
2023-04-25T04:17:53.416Z,82.9989
2023-04-25T04:18:54.189Z,82.7672
2023-04-25T04:19:55.028Z,82.5653
2023-04-25T04:20:55.684Z,82.4442
2023-04-25T04:21:56.203Z,82.3349
2023-04-25T04:22:56.805Z,82.3061
2023-04-25T04:23:57.605Z,82.5330
2023-04-25T04:24:58.066Z,82.4482
2023-04-25T04:25:58.880Z,82.8345
2023-04-25T04:26:59.533Z,82.7372
2023-04-25T04:28:00.296Z,82.8297
2023-04-25T04:29:00.916Z,83.0444
2023-04-25T04:30:01.457Z,82.8295
2023-04-25T04:31:02.347Z,82.8276
2023-04-25T04:32:03.417Z,82.9354
2023-04-25T04:33:03.980Z,83.1500
2023-04-25T04:34:04.130Z,82.8540
2023-04-25T04:35:04.569Z,82.6364
2023-04-25T04:36:05.196Z,82.6233
2023-04-25T04:37:05.948Z,82.7314
2023-04-25T04:38:06.570Z,82.8085
2023-04-25T04:39:06.631Z,82.7281
2023-04-25T04:40:07.155Z,82.7195
2023-04-25T04:41:07.766Z,82.8013
2023-04-25T04:42:08.432Z,82.8014
2023-04-25T04:43:08.937Z,82.7334
2023-04-25T04:44:09.669Z,82.6895
2023-04-25T04:45:10.294Z,82.4755
2023-04-25T04:46:11.078Z,82.4493
2023-04-25T04:47:12.266Z,82.3475
2023-04-25T04:48:13.236Z,81.7252
2023-04-25T04:49:14.087Z,81.4854
2023-04-25T04:50:14.916Z,81.5556
2023-04-25T04:51:15.353Z,81.4774
2023-04-25T04:52:16.382Z,81.3703
2023-04-25T04:53:17.168Z,81.2282
2023-04-25T04:54:17.681Z,81.0555
2023-04-25T04:55:18.370Z,80.8647
2023-04-25T04:56:19.030Z,80.7006
2023-04-25T04:57:19.502Z,80.4881
2023-04-25T04:58:20.121Z,80.2498
2023-04-25T04:59:20.730Z,80.1054
2023-04-25T05:00:21.476Z,79.9522
2023-04-25T05:01:22.653Z,79.7687
2023-04-25T05:02:23.422Z,79.2191
2023-04-25T05:03:24.177Z,79.2951
2023-04-25T05:05:24.936Z,78.7116
2023-04-25T05:06:25.585Z,77.9537
2023-04-25T05:07:26.220Z,77.5103
2023-04-25T05:08:26.791Z,77.5360
2023-04-25T05:09:27.489Z,77.5194
2023-04-25T05:10:28.169Z,77.7835
2023-04-25T05:11:28.906Z,77.6734
2023-04-25T05:12:29.609Z,77.1148
2023-04-25T05:13:30.310Z,77.0433
2023-04-25T05:14:30.278Z,77.0155
2023-04-25T05:15:30.923Z,76.9546
2023-04-25T05:16:31.495Z,77.0889
2023-04-25T05:17:32.628Z,77.1180
2023-04-25T05:18:33.653Z,76.9330
2023-04-25T05:19:34.398Z,76.9164
2023-04-25T05:20:35.033Z,77.1323
2023-04-25T05:21:35.516Z,77.3391
2023-04-25T05:22:36.120Z,77.5809
2023-04-25T05:23:36.774Z,77.7871
2023-04-25T05:24:37.312Z,77.9152
2023-04-25T05:25:37.972Z,78.0109
2023-04-25T05:26:38.678Z,78.2824
2023-04-25T05:27:39.281Z,78.6606
2023-04-25T05:28:40.078Z,79.1595
2023-04-25T05:29:40.620Z,79.3288
2023-04-25T05:30:41.297Z,79.5248
2023-04-25T05:31:42.209Z,78.8442
2023-04-25T05:32:43.231Z,78.6414
2023-04-25T05:33:44.397Z,78.5627
2023-04-25T05:34:45.873Z,77.8018
2023-04-25T05:35:46.816Z,78.0859
2023-04-25T05:36:47.725Z,78.0361
2023-04-25T05:37:48.442Z,77.8773
2023-04-25T05:38:49.365Z,77.9382
2023-04-25T05:39:50.195Z,77.6849
2023-04-25T05:40:50.702Z,77.5566
2023-04-25T05:41:51.808Z,77.3685
2023-04-25T05:42:52.747Z,76.9635
2023-04-25T05:43:55.380Z,77.1430
2023-04-25T05:44:53.589Z,76.7892
2023-04-25T05:45:54.166Z,76.9620
2023-04-25T05:46:55.203Z,76.8385
2023-04-25T05:47:55.914Z,75.8501
2023-04-25T05:48:57.062Z,75.2545
2023-04-25T05:49:57.822Z,74.7657
2023-04-25T05:50:58.338Z,74.7539
2023-04-25T05:51:59.035Z,74.9505
2023-04-25T05:52:59.677Z,75.1711
2023-04-25T05:54:00.836Z,74.8514
2023-04-25T05:55:01.549Z,74.2488
2023-04-25T05:56:02.491Z,73.6420
2023-04-25T05:57:03.095Z,73.5599
2023-04-25T05:58:03.900Z,73.2570
2023-04-25T05:59:04.637Z,73.2963
2023-04-25T06:00:05.366Z,73.4046
2023-04-25T06:01:06.164Z,73.4671
2023-04-25T06:02:06.696Z,73.4762
2023-04-25T06:03:07.715Z,73.8658
2023-04-25T06:04:07.981Z,73.7692
2023-04-25T06:05:08.557Z,73.6697
2023-04-25T06:06:09.386Z,73.9559
2023-04-25T06:07:09.873Z,74.1148
2023-04-25T06:08:10.766Z,73.8949
2023-04-25T06:09:14.296Z,74.1900
2023-04-25T06:10:12.710Z,74.2355
2023-04-25T06:11:13.630Z,74.2274
2023-04-25T06:12:14.492Z,74.3172
2023-04-25T06:13:15.217Z,73.9391
2023-04-25T06:14:15.900Z,74.0024
2023-04-25T06:16:20.794Z,73.9188
2023-04-25T06:17:21.767Z,74.3464
2023-04-25T06:18:22.949Z,75.1702
2023-04-25T06:19:22.997Z,75.8270
2023-04-25T06:20:23.801Z,76.0529
2023-04-25T06:21:24.407Z,76.4150
2023-04-25T06:22:24.961Z,76.0906
2023-04-25T06:23:25.745Z,77.6872
2023-04-25T06:24:25.938Z,78.7639
2023-04-25T06:25:26.872Z,80.3589
2023-04-25T06:26:28.129Z,81.1408
2023-04-25T06:27:28.287Z,82.0876
2023-04-25T06:28:28.860Z,83.6642
2023-04-25T06:29:29.741Z,85.3496
2023-04-25T06:30:30.574Z,86.2336
2023-04-25T06:31:31.679Z,86.7259
2023-04-25T06:32:32.597Z,86.9474
2023-04-25T06:33:33.351Z,86.9638
2023-04-25T06:34:34.102Z,88.3226
2023-04-25T06:35:34.907Z,89.3917
2023-04-25T06:36:35.716Z,90.2246
2023-04-25T06:37:36.375Z,90.8895
2023-04-25T06:38:36.909Z,91.3041
2023-04-25T06:39:38.711Z,91.6374
2023-04-25T06:40:38.215Z,91.8440
2023-04-25T06:41:38.393Z,91.9568
2023-04-25T06:42:39.235Z,92.2055
2023-04-25T06:43:39.990Z,92.3717
2023-04-25T06:44:40.865Z,92.3947
2023-04-25T06:45:41.528Z,92.6121
2023-04-25T06:46:42.263Z,93.0453
2023-04-25T06:47:43.377Z,93.0233
2023-04-25T06:48:44.458Z,93.1091
2023-04-25T06:49:45.791Z,92.8813
2023-04-25T06:50:46.468Z,92.9380
2023-04-25T06:51:46.856Z,93.2050
2023-04-25T06:52:47.345Z,92.9986
2023-04-25T06:53:47.979Z,92.9892
2023-04-25T06:54:48.624Z,92.9231
2023-04-25T06:55:49.076Z,92.6767
2023-04-25T06:56:50.319Z,92.5798
2023-04-25T06:57:50.833Z,92.8852
2023-04-25T06:58:51.664Z,92.6912
2023-04-25T06:59:51.677Z,91.9631
2023-04-25T07:00:52.015Z,91.6277
2023-04-25T07:01:52.153Z,91.7467
2023-04-25T07:02:52.253Z,92.0685
2023-04-25T07:03:53.544Z,92.3020
2023-04-25T07:04:53.747Z,92.8282
2023-04-25T07:05:53.881Z,92.7621
2023-04-25T07:06:54.425Z,92.8060
2023-04-25T07:07:55.161Z,92.9351
2023-04-25T07:08:55.936Z,92.5899
2023-04-25T07:09:56.561Z,92.5492
2023-04-25T07:10:57.250Z,92.6176
2023-04-25T07:11:57.771Z,92.9496
2023-04-25T07:12:58.462Z,92.7771
2023-04-25T07:13:59.191Z,92.1668
2023-04-25T07:14:59.659Z,91.4140
2023-04-25T07:16:00.747Z,91.6693
2023-04-25T07:17:02.210Z,91.6967
2023-04-25T07:18:02.890Z,91.6455
2023-04-25T07:19:03.920Z,91.3305
2023-04-25T07:20:04.656Z,91.1676
2023-04-25T07:21:05.203Z,91.3757
2023-04-25T07:22:06.161Z,91.5913
2023-04-25T07:23:06.820Z,91.3959
2023-04-25T07:24:07.291Z,91.9658
2023-04-25T07:25:08.013Z,92.6545
2023-04-25T07:26:08.495Z,92.9470
2023-04-25T07:27:09.210Z,93.1162
2023-04-25T07:28:09.972Z,92.3973
2023-04-25T07:29:11.049Z,91.5881
2023-04-25T07:30:11.943Z,91.5426
2023-04-25T07:31:12.648Z,92.0310
2023-04-25T07:32:13.570Z,92.1124
2023-04-25T07:33:13.815Z,91.6363
2023-04-25T07:34:14.292Z,90.8177
2023-04-25T07:35:14.970Z,91.2131
2023-04-25T07:36:15.548Z,90.8564
2023-04-25T07:37:16.181Z,90.9852
2023-04-25T07:38:16.769Z,91.1579
2023-04-25T07:39:17.518Z,91.7172
2023-04-25T07:40:18.181Z,91.4662
2023-04-25T07:41:19.017Z,91.5274
2023-04-25T07:42:19.469Z,91.6202
2023-04-25T07:43:20.131Z,92.0072
2023-04-25T07:44:20.743Z,92.4161
2023-04-25T07:45:21.472Z,92.7464
2023-04-25T07:46:22.460Z,93.0434
2023-04-25T07:47:23.109Z,93.1070
2023-04-25T07:48:23.840Z,92.8491
2023-04-25T07:49:24.450Z,92.3824
2023-04-25T07:50:25.009Z,92.3036
2023-04-25T07:51:25.795Z,92.6412
2023-04-25T07:52:26.419Z,92.6941
2023-04-25T07:53:26.952Z,92.6544
2023-04-25T07:54:27.403Z,92.5768
2023-04-25T07:55:28.129Z,92.4942
2023-04-25T07:56:33.520Z,91.9138
2023-04-25T07:57:30.114Z,91.8290
2023-04-25T07:58:31.176Z,91.4416
2023-04-25T07:59:31.659Z,91.0781
2023-04-25T08:00:32.477Z,91.4792
2023-04-25T08:01:33.080Z,91.2619
2023-04-25T08:02:33.911Z,90.9742
2023-04-25T08:03:34.850Z,90.5378
2023-04-25T08:06:36.695Z,90.8302
2023-04-25T08:07:37.462Z,91.1972
2023-04-25T08:08:38.238Z,91.3856
2023-04-25T08:09:38.684Z,91.0335
2023-04-25T08:10:39.538Z,91.1300
2023-04-25T08:11:40.114Z,91.5836
2023-04-25T08:12:41.262Z,91.5836
2023-04-25T08:13:42.153Z,91.1162
2023-04-25T08:14:42.692Z,91.0677
2023-04-25T08:15:43.653Z,90.9016
2023-04-25T08:16:44.845Z,90.5408
2023-04-25T08:17:45.553Z,90.7574
2023-04-25T08:18:46.536Z,90.3538
2023-04-25T08:19:46.645Z,90.0072
2023-04-25T08:20:47.168Z,89.6105
2023-04-25T08:21:48.216Z,89.5479
2023-04-25T08:22:48.861Z,89.7323
2023-04-25T08:23:49.592Z,89.3621
2023-04-25T08:24:50.780Z,89.6100
2023-04-25T08:25:51.439Z,89.8211
2023-04-25T08:26:52.268Z,89.2168
2023-04-25T08:27:52.795Z,89.3354
2023-04-25T08:28:53.731Z,89.0982
2023-04-25T08:29:54.413Z,88.0503
2023-04-25T08:30:54.967Z,88.4665
2023-04-25T08:31:55.137Z,88.8165
2023-04-25T08:32:56.205Z,88.3125
2023-04-25T08:33:57.053Z,88.3881
2023-04-25T08:34:57.727Z,88.6384
2023-04-25T08:35:58.696Z,88.2300
2023-04-25T08:36:59.529Z,87.9944
2023-04-25T08:38:00.207Z,87.5204
2023-04-25T08:39:01.004Z,87.9889
2023-04-25T08:40:01.685Z,87.6111
2023-04-25T08:41:02.405Z,86.3800
2023-04-25T08:42:02.900Z,86.2415
2023-04-25T08:43:03.553Z,86.9834
2023-04-25T08:44:04.352Z,87.4053
2023-04-25T08:45:06.958Z,86.3385
2023-04-25T08:46:05.819Z,86.9379
2023-04-25T08:47:06.162Z,86.7535
2023-04-25T08:48:06.163Z,86.5931
2023-04-25T08:49:06.542Z,86.8985
2023-04-25T08:50:07.408Z,86.6210
2023-04-25T08:52:08.592Z,86.2710
2023-04-25T08:53:09.255Z,86.0869
2023-04-25T08:54:19.738Z,86.2646
2023-04-25T08:55:10.092Z,86.5254
2023-04-25T08:56:10.933Z,86.8176
2023-04-25T08:57:11.090Z,87.0964
2023-04-25T08:58:11.611Z,87.0394
2023-04-25T08:59:12.721Z,87.0684
2023-04-25T09:00:13.503Z,87.2997
2023-04-25T09:01:14.402Z,87.8244
2023-04-25T09:02:15.765Z,87.9866
2023-04-25T09:03:16.762Z,87.7083
2023-04-25T09:04:17.165Z,87.4247
2023-04-25T09:05:19.436Z,87.5884
2023-04-25T09:06:18.935Z,87.7060
2023-04-25T09:07:19.667Z,87.2330
2023-04-25T09:08:20.363Z,87.1687
2023-04-25T09:09:20.869Z,86.8887
2023-04-25T09:10:21.804Z,86.8285
2023-04-25T09:11:23.613Z,86.6647
2023-04-25T09:12:23.086Z,86.6747
2023-04-25T09:13:23.768Z,86.6324
2023-04-25T09:14:24.888Z,87.0712
2023-04-25T09:15:25.545Z,87.1464
2023-04-25T09:16:25.414Z,86.9833
2023-04-25T09:17:26.552Z,86.8270
2023-04-25T09:18:30.947Z,87.2811
2023-04-25T09:20:40.325Z,85.7969
2023-04-25T09:21:38.227Z,85.8174
2023-04-25T09:22:38.867Z,85.9973
2023-04-25T09:23:39.577Z,86.2044
2023-04-25T09:24:39.576Z,85.7032
2023-04-25T09:25:40.397Z,84.6800
2023-04-25T09:26:41.243Z,84.9733
2023-04-25T09:27:41.800Z,84.8152
2023-04-25T09:28:41.889Z,83.8055
2023-04-25T09:29:42.423Z,84.0279
2023-04-25T09:30:43.241Z,84.7547
2023-04-25T09:31:44.052Z,85.0164
2023-04-25T09:32:44.446Z,84.6008
2023-04-25T09:33:45.452Z,83.7458
2023-04-25T09:34:45.659Z,83.6259
2023-04-25T09:35:46.188Z,82.7724
2023-04-25T09:36:47.442Z,82.8743
2023-04-25T09:37:48.635Z,82.1749
2023-04-25T09:38:49.192Z,81.6708
2023-04-25T09:39:49.852Z,81.7705
2023-04-25T09:40:50.725Z,81.6439
2023-04-25T09:41:51.503Z,81.0485
2023-04-25T09:42:52.352Z,81.4997
2023-04-25T09:43:52.880Z,82.0220
2023-04-25T09:44:53.748Z,82.2373
2023-04-25T09:45:56.205Z,82.1965
2023-04-25T09:46:56.037Z,81.7527
2023-04-25T09:47:57.122Z,80.1263
2023-04-25T09:48:57.553Z,80.0754
2023-04-25T09:49:58.254Z,78.4774
2023-04-25T09:50:58.884Z,78.6049
2023-04-25T09:51:59.425Z,79.3275
2023-04-25T09:53:00.122Z,79.3198
2023-04-25T09:54:00.154Z,78.6344
2023-04-25T09:55:00.579Z,79.3037
2023-04-25T09:56:01.266Z,79.8736
2023-04-25T09:57:01.765Z,80.3221
2023-04-25T09:58:02.501Z,80.6594
2023-04-25T09:59:03.832Z,79.4426
2023-04-25T10:00:04.327Z,79.7231
2023-04-25T10:01:05.095Z,79.6349
2023-04-25T10:02:06.177Z,79.5502
2023-04-25T10:03:06.514Z,79.4243
2023-04-25T10:04:06.661Z,79.3288
2023-04-25T10:05:06.614Z,78.0493
2023-04-25T10:06:07.588Z,77.6283
2023-04-25T10:07:08.384Z,77.4996
2023-04-25T10:08:09.132Z,77.0891
2023-04-25T10:09:09.749Z,77.9205
2023-04-25T10:10:10.205Z,77.5813
2023-04-25T10:11:11.326Z,77.1861
2023-04-25T10:12:12.342Z,77.2462
2023-04-25T10:13:13.163Z,77.7726
2023-04-25T10:14:13.759Z,78.4707
2023-04-25T10:15:14.429Z,78.6765
2023-04-25T10:16:15.260Z,77.8208
2023-04-25T10:17:16.010Z,77.9156
2023-04-25T10:18:16.854Z,77.5046
2023-04-25T10:19:17.589Z,77.3141
2023-04-25T10:20:18.390Z,76.9172
2023-04-25T10:21:18.951Z,77.2234
2023-04-25T10:22:19.611Z,77.6464
2023-04-25T10:23:20.173Z,78.0626
2023-04-25T10:24:21.312Z,78.0579
2023-04-25T10:25:22.011Z,77.6617
2023-04-25T10:26:22.791Z,77.0542
2023-04-25T10:27:24.072Z,77.3934
2023-04-25T10:28:24.681Z,78.4545
2023-04-25T10:29:25.324Z,77.5953
2023-04-25T10:30:25.484Z,76.1153
2023-04-25T10:31:26.871Z,76.3877
2023-04-25T10:32:27.508Z,74.4472
2023-04-25T10:33:27.608Z,74.3396
2023-04-25T10:34:27.640Z,73.3416
2023-04-25T10:35:28.141Z,72.9616
2023-04-25T10:36:28.836Z,72.2119
2023-04-25T10:37:29.449Z,71.7136
2023-04-25T10:38:30.568Z,71.7548
2023-04-25T10:39:31.216Z,72.9443
2023-04-25T10:41:02.281Z,72.9061
2023-04-25T10:42:03.003Z,72.2833
2023-04-25T10:43:03.449Z,72.6619
2023-04-25T10:44:04.165Z,73.3351
2023-04-25T10:45:04.869Z,71.8918
2023-04-25T10:46:05.456Z,72.0384
2023-04-25T10:47:06.793Z,72.5780
2023-04-25T10:48:07.941Z,72.8026
2023-04-25T10:49:08.365Z,73.1477
2023-04-25T10:50:09.090Z,72.2861
2023-04-25T10:51:09.863Z,72.4587
2023-04-25T10:52:10.390Z,72.2863
2023-04-25T10:53:11.040Z,71.4223
2023-04-25T10:54:11.162Z,71.6565
2023-04-25T10:55:11.840Z,72.0224
2023-04-25T10:56:12.598Z,71.9261
2023-04-25T10:57:13.825Z,72.2649
2023-04-25T10:58:14.726Z,71.2353
2023-04-25T10:59:14.887Z,71.4664
2023-04-25T11:00:15.496Z,71.5504
2023-04-25T11:01:15.669Z,70.4726
2023-04-25T11:02:16.286Z,69.3995
2023-04-25T11:03:16.813Z,69.6879
2023-04-25T11:04:16.937Z,70.0553
2023-04-25T11:05:17.697Z,69.3630
2023-04-25T11:06:17.632Z,69.0837
2023-04-25T11:07:17.675Z,68.0245
2023-04-25T11:08:18.373Z,68.0825
2023-04-25T11:09:19.083Z,67.9466
2023-04-25T11:10:19.906Z,67.8627
2023-04-25T11:11:20.245Z,67.8965
2023-04-25T11:12:20.812Z,68.5468
2023-04-25T11:13:21.454Z,68.2578
2023-04-25T11:14:22.104Z,68.5221
2023-04-25T11:15:22.831Z,68.9275
2023-04-25T11:16:28.462Z,68.1806
2023-04-25T11:17:26.254Z,68.6473
2023-04-25T11:18:27.070Z,68.1097
2023-04-25T11:19:27.301Z,66.9239
2023-04-25T11:20:27.907Z,66.0112
2023-04-25T11:21:28.388Z,66.2420
2023-04-25T11:22:29.070Z,67.4484
2023-04-25T11:23:29.560Z,67.8655
2023-04-25T11:24:30.725Z,67.3248
2023-04-25T11:25:31.359Z,67.1905
2023-04-25T11:26:31.952Z,67.7615
2023-04-25T11:27:32.877Z,67.3348
2023-04-25T11:28:33.525Z,66.6637
2023-04-25T11:29:34.040Z,65.9140
2023-04-25T11:30:34.746Z,66.7133
2023-04-25T11:31:35.192Z,66.9231
2023-04-25T11:32:35.823Z,67.6958
2023-04-25T11:33:35.879Z,70.8412
2023-04-25T11:34:36.522Z,72.8464
2023-04-25T11:35:37.374Z,73.9275
2023-04-25T11:36:37.903Z,73.7767
2023-04-25T11:37:38.579Z,73.6279
2023-04-25T11:38:38.714Z,73.5651
2023-04-25T11:39:39.189Z,73.5811
2023-04-25T11:40:39.766Z,74.1108
2023-04-25T11:41:41.223Z,73.9753
2023-04-25T11:42:41.451Z,72.3549
2023-04-25T11:43:43.406Z,72.7391
2023-04-25T11:44:42.891Z,71.8823
2023-04-25T11:45:43.404Z,71.1328
2023-04-25T11:46:43.458Z,70.5313
2023-04-25T11:47:44.758Z,69.9430
2023-04-25T11:48:45.743Z,69.5083
2023-04-25T11:49:46.275Z,68.3305
2023-04-25T11:50:46.773Z,67.5212
2023-04-25T11:51:47.461Z,65.4843
2023-04-25T11:52:48.101Z,64.6487
2023-04-25T11:53:48.587Z,62.9074
2023-04-25T11:54:49.301Z,62.7367
2023-04-25T11:55:51.346Z,62.3602
2023-04-25T11:56:50.123Z,63.1461
2023-04-25T11:57:50.995Z,62.5257
2023-04-25T11:58:51.724Z,62.1769
2023-04-25T11:59:51.802Z,63.2203
2023-04-25T12:00:52.473Z,63.3462
2023-04-25T12:01:53.416Z,63.9830
2023-04-25T12:02:54.850Z,63.4901
2023-04-25T12:03:55.344Z,65.5471
2023-04-25T12:04:56.870Z,65.6138
2023-04-25T12:05:56.959Z,64.8630
2023-04-25T12:06:57.341Z,65.0227
2023-04-25T12:07:58.098Z,64.3136
2023-04-25T12:08:58.819Z,65.3574
2023-04-25T12:09:59.307Z,63.7416
2023-04-25T12:11:00.019Z,63.4901
2023-04-25T12:12:00.671Z,62.6942
2023-04-25T12:13:01.291Z,59.7629
2023-04-25T12:14:01.943Z,58.2026
2023-04-25T12:15:02.665Z,59.7445
2023-04-25T12:16:03.350Z,62.8147
2023-04-25T12:17:04.332Z,65.5168
2023-04-25T12:18:05.356Z,67.4023
2023-04-25T12:19:06.242Z,68.3111
2023-04-25T12:20:07.073Z,67.2396
2023-04-25T12:21:07.642Z,66.5149
2023-04-25T12:22:08.329Z,66.8796
2023-04-25T12:23:09.047Z,68.3418